Latest Weather Observations for Richmond

IDN60901

Issued at 2:11 am EST Tuesday 23 April 2019 (issued every 10 minutes, with the page automatically refreshed every 10 minutes)

About weather observations | Map of Sydney area stations | Latest observations for Sydney area | Other Formats
Station Details ID: 067105 Name: RICHMOND RAAF Lat: -33.60 Lon: 150.78 Height: 19.0 m
Data from the previous 72 hours. | See also: Recent months at Richmond
Date/Time
EST
Temp
°C
App
Temp
°C
Dew
Point
°C
Rel
Hum
%
Delta-T
°C
Wind Press
QNH
hPa
Press
MSL
hPa
Rain since
9am
mm
Dir  Spd
km/h
Gust
km/h
Spd
kts
Gust
kts
23/02:00am 15.9 17.8 15.7 99 0.1 CALM 0 0 0 0 1025.4 1025.4 0.0
23/01:30am 15.9 17.4 15.7 99 0.1 WSW 2 7 1 4 1025.4 1025.4 0.0
23/01:20am 15.5 17.2 15.2 98 0.2 CALM 0 0 0 0 1025.5 1025.5 0.0
23/01:07am 15.9 17.8 15.7 99 0.1 CALM 0 0 0 0 1025.6 1025.6 0.0
23/01:00am 16.4 18.5 16.2 99 0.1 CALM 0 0 0 0 1025.6 1025.6 0.0
23/12:50am 16.4 18.4 16.1 98 0.2 CALM 0 0 0 0 1025.5 1025.5 0.0
23/12:30am 16.8 18.3 16.6 99 0.1 SSW 4 7 2 4 1025.5 1025.5 0.0
23/12:00am 16.9 18.4 16.7 99 0.1 SW 4 6 2 3 1025.6 1025.6 0.0
 
Date/Time
EST
Temp
°C
App
Temp
°C
Dew
Point
°C
Rel
Hum
%
Delta-T
°C
Wind Press
QNH
hPa
Press
MSL
hPa
Rain since
9am
mm
Dir  Spd
km/h
Gust
km/h
Spd
kts
Gust
kts
22/11:30pm 16.7 18.9 16.4 98 0.2 CALM 0 0 0 0 1025.4 1025.4 0.0
22/11:00pm 17.0 19.2 16.5 97 0.3 CALM 0 0 0 0 1025.3 1025.3 0.0
22/10:30pm 17.3 19.1 16.5 95 0.5 S 2 7 1 4 1025.3 1025.3 0.0
22/10:00pm 18.2 20.4 17.4 95 0.5 WSW 2 6 1 3 1025.2 1025.2 0.0
22/09:30pm 18.4 20.1 17.1 92 0.8 SW 4 9 2 5 1025.0 1025.0 0.0
22/09:00pm 19.3 20.8 17.6 90 1.0 SW 6 7 3 4 1024.8 1024.8 0.0
22/08:30pm 18.2 18.9 16.2 88 1.2 SW 7 9 4 5 1024.4 1024.4 0.0
22/08:00pm 19.9 21.7 17.5 86 1.5 WSW 4 6 2 3 1024.1 1024.1 0.0
22/07:30pm 20.4 22.6 17.4 83 1.8 ENE 2 7 1 4 1023.7 1023.7 0.0
22/07:00pm 21.0 21.9 17.6 81 2.1 E 9 13 5 7 1023.1 1023.1 0.0
22/06:30pm 21.4 21.6 17.6 79 2.3 E 13 17 7 9 1022.6 1022.6 0.0
22/06:00pm 21.5 21.5 17.1 76 2.7 E 13 17 7 9 1021.9 1021.9 0.0
22/05:30pm 22.6 22.6 17.1 71 3.4 E 13 17 7 9 1021.6 1021.6 0.0
22/05:00pm 24.2 23.2 16.5 62 4.7 E 17 22 9 12 1021.2 1021.2 0.0
22/04:30pm 25.5 27.0 15.8 55 5.9 ENE 2 7 1 4 1020.9 1020.9 0.0
22/04:00pm 25.6 26.3 16.2 56 5.7 ENE 7 11 4 6 1020.7 1020.7 0.0
22/03:30pm 25.8 26.6 15.8 54 6.1 NE 6 13 3 7 1020.7 1020.7 0.0
22/03:00pm 25.7 25.8 16.5 56 5.7 ESE 11 17 6 9 1020.7 1020.7 0.0
22/02:30pm 25.7 26.0 17.1 59 5.3 ENE 11 19 6 10 1020.7 1020.7 0.0
22/02:00pm 25.4 27.5 18.1 64 4.6 E 4 13 2 7 1020.9 1020.9 0.0
22/01:30pm 24.6 25.2 17.8 66 4.3 SE 11 17 6 9 1021.0 1021.0 0.0
22/01:00pm 24.3 25.8 17.5 66 4.2 NE 6 13 3 7 1021.2 1021.2 0.0
22/12:30pm 23.8 24.6 17.3 67 4.0 ENE 9 13 5 7 1021.6 1021.6 0.0
22/12:00pm 23.1 24.3 16.9 68 3.8 N 6 11 3 6 1021.9 1021.9 0.0
22/11:30am 22.6 25.3 17.7 74 3.0 CALM 0 7 0 4 1022.2 1022.2 0.0
22/11:01am 22.4 24.2 17.3 73 3.1 WNW 4 11 2 6 1022.5 1022.5 0.0
22/11:00am 22.4 24.6 17.5 74 3.0 WNW 2 11 1 6 1022.5 1022.5 0.0
22/10:30am 21.3 23.3 18.7 85 1.6 ESE 6 9 3 5 1022.8 1022.8 0.0
22/10:00am 20.3 21.7 18.6 90 1.1 ENE 9 13 5 7 1023.0 1023.0 0.0
22/09:39am 19.8 21.3 19.0 95 0.5 NE 9 13 5 7 1023.1 1023.1 0.0
22/09:34am 19.6 21.6 18.8 95 0.5 NE 6 11 3 6 1023.1 1023.1 0.0
22/09:30am 19.5 21.9 18.8 96 0.4 NE 4 9 2 5 1023.1 1023.1 0.0
22/09:00am 18.3 21.2 18.1 99 0.1 CALM 0 6 0 3 1023.0 1023.0 0.2
22/08:49am 17.8 20.4 17.6 99 0.1 CALM 0 6 0 3 1023.1 1023.1 0.2
22/08:42am 17.5 19.3 17.3 99 0.1 NNE 4 9 2 5 1023.1 1023.1 0.2
22/08:30am 17.2 17.9 17.0 99 0.1 NE 9 11 5 6 1023.1 1023.1 0.2
22/08:17am 17.0 18.0 16.8 99 0.1 ENE 7 9 4 5 1022.9 1022.9 0.2
22/08:10am 17.0 18.0 16.8 99 0.1 NE 7 9 4 5 1022.9 1022.9 0.2
22/08:00am 17.1 18.3 16.9 99 0.1 NE 6 9 3 5 1022.9 1022.9 0.2
22/07:50am 17.0 19.3 16.8 99 0.1 CALM 0 0 0 0 1022.7 1022.7 0.2
22/07:38am 16.8 19.0 16.6 99 0.1 CALM 0 0 0 0 1022.6 1022.6 0.2
22/07:30am 16.4 17.7 16.2 99 0.1 NE 4 6 2 3 1022.5 1022.5 0.2
22/07:06am 15.2 16.8 15.0 99 0.1 CALM 0 0 0 0 1022.3 1022.3 0.2
22/07:00am 15.2 16.8 15.0 99 0.1 CALM 0 0 0 0 1022.2 1022.2 0.2
22/06:59am 15.2 16.8 15.0 99 0.1 CALM 0 0 0 0 1022.2 1022.2 0.2
22/06:44am 15.2 16.8 15.0 99 0.1 CALM 0 0 0 0 1022.0 1022.0 0.2
22/06:42am 15.1 16.7 14.9 99 0.1 CALM 0 0 0 0 1022.0 1022.0 0.2
22/06:40am 15.0 16.6 14.8 99 0.1 CALM 0 0 0 0 1022.0 1022.0 0.2
22/06:30am 14.9 16.4 14.7 99 0.1 CALM 0 0 0 0 1021.9 1021.9 0.2
22/06:00am 15.2 16.8 15.0 99 0.1 CALM 0 0 0 0 1021.6 1021.6 0.2
22/05:39am 15.3 17.0 15.1 99 0.1 CALM 0 0 0 0 1021.4 1021.4 0.2
22/05:30am 14.9 16.4 14.7 99 0.1 CALM 0 0 0 0 1021.3 1021.3 0.2
22/05:00am 15.5 17.2 15.3 99 0.1 CALM 0 0 0 0 1021.3 1021.3 0.2
22/04:54am 15.2 16.8 15.0 99 0.1 CALM 0 0 0 0 1021.3 1021.3 0.2
22/04:40am 15.2 16.8 15.0 99 0.1 CALM 0 0 0 0 1021.2 1021.2 0.2
22/04:30am 15.5 17.2 15.3 99 0.1 CALM 0 0 0 0 1021.2 1021.2 0.2
22/04:23am 15.6 17.4 15.4 99 0.1 CALM 0 0 0 0 1021.1 1021.1 0.2
22/04:00am 15.9 17.8 15.7 99 0.1 CALM 0 0 0 0 1021.0 1021.0 0.2
22/03:36am 16.1 18.1 15.9 99 0.1 CALM 0 0 0 0 1020.9 1020.9 0.2
22/03:30am 15.8 17.6 15.6 99 0.1 CALM 0 0 0 0 1021.0 1021.0 0.2
22/03:22am 15.9 17.8 15.7 99 0.1 CALM 0 0 0 0 1021.0 1021.0 0.2
22/03:10am 16.4 18.5 16.2 99 0.1 CALM 0 0 0 0 1021.2 1021.2 0.2
22/03:00am 16.6 18.8 16.4 99 0.1 CALM 0 0 0 0 1021.3 1021.3 0.2
22/02:40am 16.4 18.5 16.2 99 0.1 CALM 0 0 0 0 1021.5 1021.5 0.2
22/02:30am 16.6 18.8 16.4 99 0.1 CALM 0 0 0 0 1021.6 1021.6 0.2
22/02:22am 16.4 18.5 16.2 99 0.1 CALM 0 0 0 0 1021.7 1021.7 0.2
22/02:00am 16.4 18.5 16.2 99 0.1 CALM 0 0 0 0 1021.8 1021.8 0.2
22/01:30am 16.1 18.1 15.9 99 0.1 CALM 0 0 0 0 1021.8 1021.8 0.2
22/01:14am 16.6 18.8 16.4 99 0.1 CALM 0 0 0 0 1021.9 1021.9 0.2
22/01:00am 16.4 18.5 16.2 99 0.1 CALM 0 0 0 0 1021.8 1021.8 0.2
22/12:35am 16.6 18.8 16.4 99 0.1 CALM 0 0 0 0 1021.8 1021.8 0.2
22/12:30am 16.5 18.6 16.3 99 0.1 CALM 0 0 0 0 1021.9 1021.9 0.2
22/12:00am 16.6 18.8 16.4 99 0.1 CALM 0 0 0 0 1021.9 1021.9 0.2
 
Date/Time
EST
Temp
°C
App
Temp
°C
Dew
Point
°C
Rel
Hum
%
Delta-T
°C
Wind Press
QNH
hPa
Press
MSL
hPa
Rain since
9am
mm
Dir  Spd
km/h
Gust
km/h
Spd
kts
Gust
kts
21/11:54pm 16.6 18.8 16.4 99 0.1 CALM 0 0 0 0 1021.9 1021.9 0.2
21/11:51pm 16.9 19.2 16.7 99 0.1 CALM 0 0 0 0 1021.9 1021.9 0.2
21/11:30pm 17.0 19.3 16.7 98 0.2 CALM 0 0 0 0 1021.9 1021.9 0.2
21/11:23pm 17.0 19.3 16.7 98 0.2 CALM 0 0 0 0 1021.9 1021.9 0.2
21/11:00pm 17.0 19.2 16.4 96 0.4 CALM 0 0 0 0 1022.1 1022.1 0.2
21/10:30pm 17.7 20.2 17.2 97 0.3 CALM 0 0 0 0 1022.0 1022.0 0.2
21/10:00pm 17.8 20.3 17.2 96 0.4 CALM 0 0 0 0 1022.3 1022.3 0.2
21/09:30pm 17.7 19.9 16.4 92 0.8 CALM 0 0 0 0 1022.4 1022.4 0.2
21/09:00pm 18.8 21.4 17.5 92 0.8 CALM 0 0 0 0 1022.2 1022.2 0.2
21/08:30pm 19.3 21.8 17.3 88 1.2 CALM 0 0 0 0 1022.2 1022.2 0.2
21/08:00pm 20.1 23.0 18.1 88 1.2 CALM 0 0 0 0 1022.2 1022.2 0.2
21/07:30pm 20.1 22.5 17.9 87 1.4 NNW 2 7 1 4 1022.3 1022.3 0.2
21/07:00pm 20.8 21.5 18.0 84 1.7 ENE 11 15 6 8 1021.9 1021.9 0.2
21/06:30pm 21.2 21.8 17.8 81 2.1 ENE 11 15 6 8 1021.9 1021.9 0.2
21/06:00pm 21.9 21.9 18.1 79 2.4 ENE 15 19 8 10 1021.8 1021.8 0.2
21/05:30pm 22.4 23.3 18.4 78 2.5 ENE 11 17 6 9 1021.6 1021.6 0.2
21/05:00pm 23.6 24.2 18.5 73 3.2 E 13 19 7 10 1021.3 1021.3 0.2
21/04:30pm 24.4 24.4 18.1 68 4.0 E 15 20 8 11 1021.2 1021.2 0.2
21/04:00pm 25.9 28.4 18.1 62 4.9 NNE 2 7 1 4 1020.9 1020.9 0.2
21/03:30pm 25.6 27.1 17.5 61 5.1 NNE 6 9 3 5 1020.8 1020.8 0.2
21/03:00pm 25.7 26.8 17.9 62 4.9 NE 9 13 5 7 1021.0 1021.0 0.2
21/02:30pm 25.4 26.4 17.8 62 4.8 ENE 9 15 5 8 1021.1 1021.1 0.2
21/02:00pm 25.6 26.2 17.8 62 4.9 E 11 15 6 8 1021.5 1021.5 0.2
21/01:30pm 25.3 26.7 17.7 62 4.8 ENE 7 17 4 9 1021.7 1021.7 0.2
21/01:00pm 24.8 25.8 17.8 65 4.4 ENE 9 17 5 9 1022.1 1022.1 0.2
21/12:30pm 24.1 24.3 17.6 67 4.1 NE 13 17 7 9 1022.5 1022.5 0.2
21/12:00pm 23.1 24.1 18.6 76 2.8 E 11 17 6 9 1023.2 1023.2 0.2
21/11:30am 21.6 23.3 19.3 87 1.5 ESE 9 15 5 8 1023.9 1023.9 0.0
21/11:12am 20.2 21.4 18.3 89 1.2 ESE 9 13 5 7 1024.6 1024.6 0.0
21/11:00am 20.7 22.8 19.4 92 0.8 ESE 7 11 4 6 1024.5 1024.5 0.0
21/10:50am 20.2 22.1 19.0 93 0.8 E 7 11 4 6 1024.6 1024.6 0.0
21/10:30am 19.4 21.6 19.2 99 0.1 ENE 6 7 3 4 1024.8 1024.8 0.0
21/10:00am 18.6 20.4 18.4 99 0.1 NE 6 11 3 6 1024.7 1024.7 0.0
21/09:30am 18.4 21.3 18.2 99 0.1 CALM 0 0 0 0 1025.0 1025.0 0.0
21/09:00am 18.1 20.9 17.9 99 0.1 CALM 0 0 0 0 1025.0 1025.0 0.0
21/08:30am 18.1 20.9 17.9 99 0.1 CALM 0 7 0 4 1025.0 1025.0 0.0
21/08:00am 17.8 20.4 17.6 99 0.1 CALM 0 0 0 0 1025.1 1025.1 0.0
21/07:30am 17.6 20.2 17.4 99 0.1 CALM 0 0 0 0 1024.8 1024.8 0.0
21/07:00am 17.5 20.0 17.3 99 0.1 CALM 0 0 0 0 1024.4 1024.4 0.0
21/06:30am 17.2 19.6 17.0 99 0.1 CALM 0 0 0 0 1024.2 1024.2 0.0
21/06:00am 16.9 19.2 16.7 99 0.1 CALM 0 0 0 0 1023.9 1023.9 0.0
21/05:30am 16.6 18.8 16.4 99 0.1 CALM 0 0 0 0 1023.7 1023.7 0.0
21/05:00am 15.9 17.8 15.7 99 0.1 CALM 0 0 0 0 1023.5 1023.5 0.0
21/04:30am 15.4 17.1 15.2 99 0.1 CALM 0 0 0 0 1023.3 1023.3 0.0
21/04:10am 15.7 17.5 15.5 99 0.1 CALM 0 0 0 0 1023.3 1023.3 0.0
21/04:05am 15.8 17.6 15.6 99 0.1 CALM 0 0 0 0 1023.4 1023.4 0.0
21/04:00am 16.0 17.9 15.8 99 0.1 CALM 0 0 0 0 1023.4 1023.4 0.0
21/03:30am 16.1 18.1 15.9 99 0.1 CALM 0 0 0 0 1023.1 1023.1 0.0
21/03:00am 16.1 18.1 15.9 99 0.1 CALM 0 0 0 0 1023.1 1023.1 0.0
21/02:30am 16.2 18.2 16.0 99 0.1 CALM 0 0 0 0 1023.2 1023.2 0.0
21/02:00am 16.7 18.9 16.5 99 0.1 CALM 0 0 0 0 1023.4 1023.4 0.0
21/01:30am 16.5 18.6 16.3 99 0.1 CALM 0 0 0 0 1023.6 1023.6 0.0
21/01:25am 17.1 19.5 16.9 99 0.1 CALM 0 0 0 0 1023.7 1023.7 0.0
21/01:00am 17.0 19.3 16.8 99 0.1 CALM 0 0 0 0 1023.9 1023.9 0.0
21/12:43am 17.5 20.0 17.3 99 0.1 CALM 0 0 0 0 1024.1 1024.1 0.0
21/12:30am 17.6 20.1 17.3 98 0.2 CALM 0 0 0 0 1024.3 1024.3 0.0
21/12:00am 18.1 20.7 17.6 97 0.3 CALM 0 0 0 0 1024.4 1024.4 0.0
 
Date/Time
EST
Temp
°C
App
Temp
°C
Dew
Point
°C
Rel
Hum
%
Delta-T
°C
Wind Press
QNH
hPa
Press
MSL
hPa
Rain since
9am
mm
Dir  Spd
km/h
Gust
km/h
Spd
kts
Gust
kts
20/11:30pm 18.8 21.6 18.0 95 0.5 CALM 0 0 0 0 1024.5 1024.5 0.0
20/11:00pm 18.9 21.8 18.2 96 0.4 CALM 0 0 0 0 1024.6 1024.6 0.0
20/10:30pm 19.2 22.1 18.2 94 0.6 CALM 0 0 0 0 1024.8 1024.8 0.0
20/10:21pm 19.4 22.4 18.4 94 0.6 CALM 0 0 0 0 1024.8 1024.8 0.0
20/10:00pm 19.5 22.4 18.2 92 0.8 CALM 0 0 0 0 1024.9 1024.9 0.0
20/09:30pm 19.3 21.9 17.6 90 1.0 CALM 0 0 0 0 1024.9 1024.9 0.0
20/09:00pm 19.7 22.5 18.0 90 1.0 CALM 0 0 0 0 1024.9 1024.9 0.0
20/08:53pm 19.8 22.3 18.1 90 1.1 SSW 2 6 1 3 1024.9 1024.9 0.0
20/08:30pm 19.9 22.3 18.0 89 1.2 SSW 2 9 1 5 1024.8 1024.8 0.0
20/08:00pm 20.5 23.5 18.4 88 1.3 CALM 0 0 0 0 1024.6 1024.6 0.0
20/07:30pm 20.9 24.0 18.7 87 1.4 CALM 0 0 0 0 1024.4 1024.4 0.0
20/07:00pm 20.6 22.4 18.2 86 1.5 ENE 6 7 3 4 1024.3 1024.3 0.0
20/06:30pm 20.9 22.0 17.9 83 1.9 ENE 9 13 5 7 1023.9 1023.9 0.0
20/06:00pm 21.6 21.6 18.0 80 2.2 ENE 15 20 8 11 1023.6 1023.6 0.0
20/05:30pm 22.0 22.3 17.8 77 2.6 ENE 13 20 7 11 1023.2 1023.2 0.0
20/05:00pm 23.2 23.4 17.7 71 3.4 ENE 13 20 7 11 1023.1 1023.1 0.0
20/04:30pm 25.0 25.1 17.5 63 4.7 ENE 13 19 7 10 1023.0 1023.0 0.0
20/04:00pm 25.6 25.5 17.0 59 5.3 NE 13 19 7 10 1022.9 1022.9 0.0
20/03:30pm 25.9 26.2 17.0 58 5.5 NE 11 15 6 8 1023.0 1023.0 0.0
20/03:00pm 25.9 26.5 16.7 57 5.7 E 9 17 5 9 1023.3 1023.3 0.0
20/02:30pm 26.1 26.4 16.9 57 5.7 ENE 11 17 6 9 1023.4 1023.4 0.0
20/02:00pm 25.6 25.7 16.5 57 5.6 NNE 11 17 6 9 1023.6 1023.6 0.0
20/01:30pm 25.6 25.7 17.5 61 5.1 NNE 13 17 7 9 1023.9 1023.9 0.0
20/01:00pm 25.4 25.7 17.1 60 5.1 ENE 11 17 6 9 1024.4 1024.4 0.0
20/12:30pm 25.0 25.2 17.7 64 4.6 ENE 13 17 7 9 1025.0 1025.0 0.0
20/12:00pm 24.1 25.2 17.1 65 4.3 NE 7 17 4 9 1025.6 1025.6 0.0
20/11:30am 23.9 25.6 18.1 70 3.6 NE 6 11 3 6 1026.1 1026.1 0.0
20/11:00am 22.7 24.3 18.3 76 2.7 E 7 11 4 6 1026.6 1026.6 0.0
20/10:30am 21.0 22.7 17.2 79 2.3 SE 4 9 2 5 1026.8 1026.8 0.0
20/10:00am 20.7 22.8 17.3 81 2.1 E 2 7 1 4 1027.1 1027.1 0.0
20/09:30am 19.2 21.6 17.9 92 0.8 E 2 7 1 4 1027.2 1027.2 0.0
20/09:23am 18.3 20.0 17.1 93 0.7 E 4 7 2 4 1027.3 1027.3 0.0
20/09:21am 18.3 20.1 17.3 94 0.6 E 4 7 2 4 1027.3 1027.3 0.0
20/09:04am 17.5 18.6 17.2 98 0.2 ENE 7 9 4 5 1027.3 1027.3 0.0
20/09:00am 17.4 18.5 17.1 98 0.2 ENE 7 11 4 6 1027.3 1027.3 0.0
20/08:30am 16.7 17.8 16.5 99 0.1 ESE 6 7 3 4 1027.5 1027.5 0.0
20/08:26am 16.6 17.6 16.4 99 0.1 E 6 7 3 4 1027.5 1027.5 0.0
20/08:06am 15.7 17.5 15.5 99 0.1 CALM 0 0 0 0 1027.4 1027.4 0.0
20/08:00am 15.7 17.5 15.5 99 0.1 CALM 0 0 0 0 1027.4 1027.4 0.0
20/07:30am 14.2 15.5 14.0 99 0.1 CALM 0 0 0 0 1027.1 1027.1 0.0
20/07:00am 13.8 14.9 13.6 99 0.1 CALM 0 0 0 0 1026.8 1026.8 0.0
20/06:30am 13.3 14.3 13.1 99 0.1 CALM 0 0 0 0 1026.5 1026.5 0.0
20/06:00am 13.8 14.2 13.6 99 0.1 NNE 4 9 2 5 1026.5 1026.5 0.0
20/05:30am 13.3 14.3 13.1 99 0.1 CALM 0 0 0 0 1026.3 1026.3 0.0
20/05:28am 13.3 14.3 13.1 99 0.1 CALM 0 0 0 0 1026.2 1026.2 0.0
20/05:14am 13.0 13.9 12.8 99 0.1 CALM 0 0 0 0 1026.3 1026.3 0.0
20/05:00am 13.0 13.9 12.8 99 0.1 CALM 0 0 0 0 1026.2 1026.2 0.0
20/04:54am 13.0 13.8 12.7 98 0.2 CALM 0 0 0 0 1026.2 1026.2 0.0
20/04:34am 12.9 13.7 12.6 98 0.2 CALM 0 0 0 0 1026.0 1026.0 0.0
20/04:30am 12.8 13.6 12.5 98 0.2 CALM 0 0 0 0 1026.0 1026.0 0.0
20/04:00am 13.0 13.8 12.7 98 0.2 CALM 0 0 0 0 1026.0 1026.0 0.0
20/03:30am 13.4 14.4 13.2 99 0.1 CALM 0 0 0 0 1025.9 1025.9 0.0
20/03:00am 13.7 14.8 13.4 98 0.2 CALM 0 0 0 0 1025.8 1025.8 0.0
20/02:30am 13.3 14.2 13.0 98 0.2 CALM 0 0 0 0 1025.9 1025.9 0.0

Latest Capital City Observations: Canberra | Sydney | Melbourne | Brisbane | Adelaide | Perth | Hobart | Darwin

Other formats

Comma delimited format used in spreadsheet applications
http://www.bom.gov.au/fwo/IDN60901/IDN60901.95753.axf

JavaScript Object Notation format (JSON) in row-major order
http://www.bom.gov.au/fwo/IDN60901/IDN60901.95753.json

Data quality

Most of these data are generated automatically and are frequently updated. Quality checks on data are not normally performed. It is possible for incorrect values to appear. Refer to information at About Latest Weather Observations and please check the disclaimer before using these data.